LFBY/XDA METAR and TAF weather

Enter ICAO airport designator
Station Type Date Time Source
LFBY METAR 2022/12/08 13:30 UTC NOAA

LFBY 081330Z AUTO 08005KT 040V100 3200 // ////// 09/08 Q1002


Station Type Date Time Source
LFBY Decoded METAR 2022/12/08 13:30 UTC NOAA

Dax, France (LFBY) 43-41N 001-04W 32M
Dec 08, 2022 - 08:30 AM EST / 2022.12.08 1330 UTC
Wind: from the E (080 degrees) at 6 MPH (5 KT) (direction variable):0
Visibility: 1 mile(s):0
Temperature: 48 F (9 C)
Dew Point: 46 F (8 C)
Relative Humidity: 93%
Pressure (altimeter): 29.59 in. Hg (1002 hPa)
ob: LFBY 081330Z AUTO 08005KT 040V100 3200 // ////// 09/08 Q1002
cycle: 13

Station Type Date Time Source
LFBY TAF UTC NOAA

Error!

Example: see airport list